Time;durP1;ratioP1;P1;durP2;ratioP2;P2;SDS_P1;SDS_P2;PMS_P1;PMS_P2;Temp;Humidity;BMP_temperature;BMP_pressure;BME280_temperature;BME280_humidity;BME280_pressure;Samples;Min_cycle;Max_cycle;Signal;HPM_P1;HPM_P2
2021/03/10 00:01:11;;;;;;;23.35;14.50;;;;;;;4.03;57.87;98301.00;5060457;28;45261;-82
2021/03/10 00:03:37;;;;;;;24.13;14.90;;;;;;;4.23;58.07;98303.94;5069129;28;45328;-82
2021/03/10 00:06:02;;;;;;;28.52;15.50;;;;;;;3.94;59.27;98317.44;5060309;28;45465;-82
2021/03/10 00:08:28;;;;;;;22.50;14.18;;;;;;;4.03;57.60;98322.03;5060353;28;45320;-82
2021/03/10 00:10:53;;;;;;;24.38;14.93;;;;;;;3.96;59.33;98315.53;5060091;28;45558;-82
2021/03/10 00:13:18;;;;;;;22.92;13.55;;;;;;;3.77;61.45;98314.25;5060355;28;45449;-81
2021/03/10 00:15:44;;;;;;;23.48;14.48;;;;;;;3.73;63.49;98311.97;5075813;28;45562;-82
2021/03/10 00:18:10;;;;;;;23.48;14.50;;;;;;;3.76;62.84;98314.38;5075803;27;45449;-82
2021/03/10 00:20:36;;;;;;;23.13;13.55;;;;;;;3.80;59.60;98310.56;5067154;28;45268;-82
2021/03/10 00:23:01;;;;;;;20.77;13.50;;;;;;;3.74;63.23;98321.53;5066927;28;45197;-82
2021/03/10 00:25:27;;;;;;;22.38;13.63;;;;;;;3.72;64.18;98329.53;5058138;28;45926;-82
2021/03/10 00:27:52;;;;;;;21.88;13.18;;;;;;;3.88;58.85;98333.66;5060049;28;45290;-82
2021/03/10 00:30:18;;;;;;;23.65;14.88;;;;;;;4.03;58.16;98332.56;5060070;28;45277;-82
2021/03/10 00:32:43;;;;;;;22.15;13.77;;;;;;;4.01;59.82;98323.09;5068881;28;45283;-81
2021/03/10 00:35:09;;;;;;;21.40;13.50;;;;;;;3.98;57.64;98328.59;5072970;28;45369;-82
2021/03/10 00:37:35;;;;;;;23.58;14.00;;;;;;;4.02;58.41;98335.31;5059618;28;45297;-82
2021/03/10 00:40:00;;;;;;;21.45;13.68;;;;;;;3.81;62.10;98333.28;5059922;28;45313;-81
2021/03/10 00:42:26;;;;;;;22.35;13.85;;;;;;;3.83;58.90;98327.91;5059792;28;45488;-82
2021/03/10 00:44:51;;;;;;;23.30;13.95;;;;;;;3.80;60.13;98335.06;5059775;28;46175;-82
2021/03/10 00:47:17;;;;;;;23.08;14.15;;;;;;;3.77;58.78;98331.84;5059647;28;45256;-82
2021/03/10 00:49:44;;;;;;;25.25;14.55;;;;;;;3.78;58.64;98350.13;5064786;28;45403;-81
2021/03/10 00:52:10;;;;;;;28.42;15.73;;;;;;;3.59;63.13;98358.50;5071467;27;45424;-82
2021/03/10 00:54:36;;;;;;;23.13;14.23;;;;;;;3.57;62.13;98363.03;5074013;27;45596;-82
2021/03/10 00:57:02;;;;;;;25.40;14.38;;;;;;;3.53;59.22;98365.97;5067303;28;45972;-81
2021/03/10 00:59:28;;;;;;;23.77;14.48;;;;;;;3.52;60.84;98365.13;5071782;28;45384;-81
2021/03/10 01:01:54;;;;;;;25.92;14.23;;;;;;;3.69;58.71;98371.81;5067114;28;45520;-82
2021/03/10 01:04:19;;;;;;;24.98;14.45;;;;;;;3.72;57.71;98376.03;5059251;28;45223;-82
2021/03/10 01:06:45;;;;;;;23.05;14.63;;;;;;;3.66;60.22;98377.31;5059478;28;45299;-82
2021/03/10 01:09:11;;;;;;;21.58;13.25;;;;;;;3.76;59.39;98375.69;5059285;28;45483;-82
2021/03/10 01:11:38;;;;;;;22.45;14.77;;;;;;;3.45;62.16;98380.50;5058970;28;45514;-82
2021/03/10 01:14:05;;;;;;;24.38;14.18;;;;;;;3.17;63.38;98389.47;5062636;28;45391;-82
2021/03/10 01:16:31;;;;;;;24.25;14.82;;;;;;;3.19;62.70;98391.06;5077814;27;45232;-82
2021/03/10 01:18:57;;;;;;;22.48;14.57;;;;;;;3.02;61.97;98393.97;5072088;28;45245;-82
2021/03/10 01:21:23;;;;;;;22.42;13.60;;;;;;;2.97;63.13;98398.69;5059336;28;45666;-82
2021/03/10 01:23:48;;;;;;;27.17;14.68;;;;;;;2.88;63.86;98403.63;5058930;28;45434;-81
2021/03/10 01:26:14;;;;;;;21.10;13.13;;;;;;;2.90;63.46;98396.50;5058913;28;45238;-82
2021/03/10 01:28:40;;;;;;;21.58;13.73;;;;;;;2.76;65.17;98396.59;5059331;28;45477;-82
2021/03/10 01:31:05;;;;;;;21.52;13.43;;;;;;;2.80;64.20;98395.44;5058917;28;45657;-81
2021/03/10 01:33:31;;;;;;;23.83;14.07;;;;;;;2.97;64.24;98399.56;5061356;28;47029;-81
2021/03/10 01:35:56;;;;;;;21.10;13.23;;;;;;;2.80;64.33;98408.56;5058298;28;45286;-82
2021/03/10 01:38:21;;;;;;;20.63;12.93;;;;;;;2.70;64.92;98397.00;5058955;28;45323;-81
2021/03/10 01:40:47;;;;;;;23.00;14.57;;;;;;;2.89;62.12;98396.63;5058534;28;45561;-82
2021/03/10 01:43:12;;;;;;;21.80;13.73;;;;;;;2.80;62.47;98397.25;5058935;28;46036;-82
2021/03/10 01:45:38;;;;;;;22.70;13.77;;;;;;;2.86;64.45;98407.34;5058671;28;45312;-82
2021/03/10 01:48:09;;;;;;;21.98;13.50;;;;;;;2.77;65.31;98395.66;5058957;28;45333;-81
2021/03/10 01:50:35;;;;;;;24.42;14.32;;;;;;;2.68;64.26;98405.00;5071234;28;45582;-81
2021/03/10 01:53:02;;;;;;;22.08;13.70;;;;;;;2.72;63.28;98398.59;5070056;27;45514;-82
2021/03/10 01:55:27;;;;;;;24.40;14.18;;;;;;;2.83;63.41;98400.47;5066100;27;45266;-81
2021/03/10 01:57:54;;;;;;;22.58;13.75;;;;;;;2.55;65.30;98398.84;5058588;28;45317;-82
2021/03/10 02:00:20;;;;;;;25.33;15.23;;;;;;;2.61;64.67;98393.19;5058797;28;45499;-82
2021/03/10 02:02:46;;;;;;;24.35;14.50;;;;;;;2.33;64.99;98397.66;5058419;28;45261;-82
2021/03/10 02:05:20;;;;;;;22.23;14.40;;;;;;;2.39;66.68;98393.78;5058505;28;45317;-82
2021/03/10 02:08:04;;;;;;;24.83;14.23;;;;;;;2.37;64.84;98399.13;5058622;28;45610;-82
2021/03/10 02:11:05;;;;;;;24.17;14.55;;;;;;;2.35;65.31;98401.00;5058170;28;45321;-82
2021/03/10 02:13:30;;;;;;;21.83;13.85;;;;;;;2.17;67.25;98389.91;5068785;27;45293;-81
2021/03/10 02:16:05;;;;;;;21.60;13.35;;;;;;;2.08;67.65;98382.63;5075290;28;45467;-81
2021/03/10 02:18:41;;;;;;;21.50;12.82;;;;;;;2.07;66.82;98373.94;5073959;28;45461;-81
2021/03/10 02:21:31;;;;;;;22.58;12.90;;;;;;;2.15;66.00;98373.44;5069910;28;45297;-81
2021/03/10 02:24:10;;;;;;;24.83;14.60;;;;;;;2.35;65.09;98369.50;5064689;28;48090;-81
2021/03/10 02:27:00;;;;;;;21.85;13.02;;;;;;;2.16;65.64;98377.75;5060058;28;45480;-81
2021/03/10 02:29:28;;;;;;;20.80;13.75;;;;;;;2.09;66.76;98374.69;5058391;28;45510;-82
2021/03/10 02:31:55;;;;;;;23.75;13.65;;;;;;;2.02;67.74;98371.59;5058294;28;45314;-81
2021/03/10 02:34:21;;;;;;;23.67;14.48;;;;;;;2.01;67.79;98372.53;5057674;28;46058;-82
2021/03/10 02:36:49;;;;;;;21.45;13.68;;;;;;;2.13;66.41;98365.69;5058238;28;45331;-81
2021/03/10 02:39:20;;;;;;;25.35;14.52;;;;;;;2.22;66.75;98360.75;5057939;28;45331;-81
2021/03/10 02:41:46;;;;;;;24.77;14.98;;;;;;;2.23;65.74;98360.69;5058003;28;45209;-82
2021/03/10 02:44:13;;;;;;;24.92;14.98;;;;;;;2.17;67.27;98371.53;5057759;28;45432;-82
2021/03/10 02:46:40;;;;;;;25.35;14.02;;;;;;;2.51;63.65;98373.75;5057988;28;45313;-82
2021/03/10 02:49:07;;;;;;;24.25;14.68;;;;;;;2.63;63.16;98358.03;5056960;28;45221;-82
2021/03/10 02:51:34;;;;;;;23.38;14.98;;;;;;;2.70;62.47;98349.72;5087016;27;45552;-82
2021/03/10 02:54:01;;;;;;;25.38;15.00;;;;;;;2.82;61.71;98356.78;5076431;28;46249;-82
2021/03/10 02:56:27;;;;;;;23.63;14.68;;;;;;;2.74;62.13;98372.22;5057628;28;45482;-82
2021/03/10 02:58:53;;;;;;;25.80;14.65;;;;;;;2.66;62.53;98377.13;5057753;28;45343;-82
2021/03/10 03:01:19;;;;;;;22.80;14.75;;;;;;;2.61;62.98;98365.16;5056413;28;45351;-82
2021/03/10 03:03:44;;;;;;;21.27;13.52;;;;;;;2.54;62.67;98358.66;5057494;28;45470;-82
2021/03/10 03:06:10;;;;;;;23.50;14.18;;;;;;;2.58;63.80;98361.88;5057870;28;45322;-82
2021/03/10 03:08:36;;;;;;;24.05;13.93;;;;;;;2.51;63.76;98366.72;5057565;28;45387;-82
2021/03/10 03:11:03;;;;;;;22.98;13.60;;;;;;;2.23;66.32;98370.31;5057269;28;45553;-81
2021/03/10 03:13:30;;;;;;;23.83;14.15;;;;;;;2.55;63.37;98376.06;5057389;28;45577;-81
2021/03/10 03:15:57;;;;;;;22.30;14.05;;;;;;;2.46;63.09;98384.56;5074903;28;45548;-81
2021/03/10 03:18:24;;;;;;;24.20;14.43;;;;;;;2.29;65.53;98385.66;5076167;27;45357;-81
2021/03/10 03:20:51;;;;;;;25.05;14.98;;;;;;;2.29;65.00;98386.53;5056322;28;45411;-82
2021/03/10 03:23:19;;;;;;;25.70;15.48;;;;;;;2.32;65.04;98394.19;5057142;28;45229;-81
2021/03/10 03:25:45;;;;;;;25.05;14.60;;;;;;;2.19;64.75;98388.88;5061565;28;45516;-81
2021/03/10 03:28:14;;;;;;;24.95;15.38;;;;;;;2.52;62.98;98391.19;5055995;28;45382;-82
2021/03/10 03:30:41;;;;;;;25.20;15.38;;;;;;;2.46;64.89;98408.19;5067438;28;45357;-82
2021/03/10 03:33:33;;;;;;;28.73;15.75;;;;;;;2.21;66.45;98404.56;5060529;27;45970;-82
2021/03/10 03:35:58;;;;;;;24.52;15.00;;;;;;;2.27;65.51;98404.16;5070939;28;45335;-81
2021/03/10 03:38:27;;;;;;;23.48;15.30;;;;;;;2.24;66.83;98416.63;5057470;28;45308;-81
2021/03/10 03:40:53;;;;;;;23.15;14.20;;;;;;;2.11;65.99;98421.81;5056839;28;45433;-81
2021/03/10 03:43:20;;;;;;;23.05;14.25;;;;;;;2.12;65.93;98439.22;5057294;28;45490;-81
2021/03/10 03:45:46;;;;;;;23.17;14.48;;;;;;;1.94;67.08;98441.25;5056948;28;45340;-81
2021/03/10 03:48:12;;;;;;;22.02;13.85;;;;;;;1.78;68.25;98442.22;5055883;28;45338;-81
2021/03/10 03:50:40;;;;;;;25.30;15.63;;;;;;;1.69;69.63;98448.88;5069760;28;45490;-81
2021/03/10 03:53:05;;;;;;;24.77;15.02;;;;;;;2.06;66.65;98465.84;5068663;28;45486;-81
2021/03/10 03:55:30;;;;;;;24.48;14.95;;;;;;;2.29;65.28;98459.16;5064101;27;45309;-82
2021/03/10 03:57:56;;;;;;;24.13;15.10;;;;;;;2.01;66.06;98477.47;5057056;28;45256;-81
2021/03/10 04:00:25;;;;;;;22.67;14.70;;;;;;;2.06;65.63;98476.34;5059074;28;45256;-82
2021/03/10 04:02:51;;;;;;;23.40;13.70;;;;;;;2.29;65.32;98472.28;5067391;28;46602;-82
2021/03/10 04:05:19;;;;;;;24.40;14.90;;;;;;;1.93;67.94;98469.25;5066691;28;45257;-81
2021/03/10 04:07:55;;;;;;;26.45;14.82;;;;;;;1.69;67.67;98492.59;5060597;28;45308;-81
2021/03/10 04:10:25;;;;;;;24.15;15.18;;;;;;;2.00;66.25;98491.53;5060006;28;45478;-81
2021/03/10 04:12:51;;;;;;;25.90;15.13;;;;;;;1.82;67.06;98484.81;5060244;28;45483;-81
2021/03/10 04:15:17;;;;;;;24.30;15.05;;;;;;;1.62;68.00;98486.03;5071792;28;45525;-81
2021/03/10 04:17:42;;;;;;;26.90;15.85;;;;;;;1.60;67.36;98479.09;5079345;28;45497;-81
2021/03/10 04:20:16;;;;;;;24.55;15.02;;;;;;;1.52;68.90;98486.59;5063807;27;45291;-81
2021/03/10 04:22:42;;;;;;;24.73;14.60;;;;;;;1.44;68.38;98487.06;5060076;28;46667;-82
2021/03/10 04:25:09;;;;;;;25.90;15.32;;;;;;;1.66;68.51;98503.25;5059735;28;45450;-81
2021/03/10 04:27:35;;;;;;;25.55;14.93;;;;;;;1.50;70.22;98498.94;5060146;28;45286;-81
2021/03/10 04:30:03;;;;;;;28.05;15.68;;;;;;;1.54;68.88;98494.38;5059940;28;45289;-82
2021/03/10 04:32:29;;;;;;;23.85;15.02;;;;;;;1.48;68.69;98500.00;5059857;28;45363;-82
2021/03/10 04:34:54;;;;;;;25.52;15.43;;;;;;;1.39;68.41;98502.25;5059621;28;45426;-82
2021/03/10 04:37:19;;;;;;;25.77;16.13;;;;;;;1.40;69.23;98503.06;5059940;28;45412;-81
2021/03/10 04:39:45;;;;;;;27.13;15.73;;;;;;;1.40;70.39;98497.81;5059444;28;45284;-81
2021/03/10 04:42:10;;;;;;;26.85;15.80;;;;;;;1.37;70.36;98498.88;5059783;28;45270;-81
2021/03/10 04:44:36;;;;;;;28.65;16.42;;;;;;;1.27;70.76;98503.81;5059604;28;45301;-81
2021/03/10 04:47:01;;;;;;;25.75;16.05;;;;;;;1.33;70.09;98507.00;5059935;28;45312;-82
2021/03/10 04:49:27;;;;;;;25.67;14.80;;;;;;;1.29;70.56;98503.69;5073902;28;45448;-81
2021/03/10 04:51:52;;;;;;;23.48;13.82;;;;;;;1.31;70.35;98500.06;5060965;28;46121;-81
2021/03/10 04:54:18;;;;;;;24.05;14.23;;;;;;;1.22;70.12;98502.38;5075503;28;45347;-81
2021/03/10 04:56:43;;;;;;;25.75;15.25;;;;;;;1.15;70.49;98504.53;5059605;28;45416;-82
2021/03/10 04:59:09;;;;;;;26.92;15.13;;;;;;;1.20;70.88;98501.63;5071317;28;45395;-81
2021/03/10 05:01:34;;;;;;;26.92;14.93;;;;;;;1.15;70.61;98504.53;5059455;28;45989;-82
2021/03/10 05:04:00;;;;;;;24.02;14.32;;;;;;;1.15;70.40;98510.59;5059365;28;45261;-81
2021/03/10 05:06:27;;;;;;;27.42;15.77;;;;;;;1.17;71.58;98513.13;5059728;28;45312;-81
2021/03/10 05:08:53;;;;;;;27.38;15.80;;;;;;;1.16;70.54;98511.44;5059298;28;45430;-81
2021/03/10 05:11:18;;;;;;;26.73;15.25;;;;;;;1.25;70.51;98515.28;5058063;28;46471;-81
2021/03/10 05:13:44;;;;;;;26.55;16.35;;;;;;;1.30;69.86;98515.84;5060062;28;45222;-81
2021/03/10 05:16:09;;;;;;;26.48;15.55;;;;;;;1.19;70.02;98519.13;5078442;28;45447;-81
2021/03/10 05:18:35;;;;;;;27.05;16.08;;;;;;;1.09;71.01;98521.44;5076246;28;46028;-82
2021/03/10 05:21:00;;;;;;;25.90;15.27;;;;;;;1.04;72.21;98520.84;5059244;28;45305;-81
2021/03/10 05:23:25;;;;;;;27.58;16.35;;;;;;;1.04;71.90;98536.56;5059057;28;45365;-81
2021/03/10 05:25:51;;;;;;;23.45;14.48;;;;;;;1.06;70.13;98526.03;5058994;28;45440;-81
2021/03/10 05:28:16;;;;;;;29.48;15.38;;;;;;;1.06;71.94;98539.94;5059158;28;45553;-81
2021/03/10 05:30:42;;;;;;;24.95;14.85;;;;;;;1.08;71.45;98532.84;5059270;28;45863;-81
2021/03/10 05:33:07;;;;;;;26.15;14.75;;;;;;;1.11;71.95;98535.28;5058747;28;45315;-81
2021/03/10 05:35:33;;;;;;;24.80;14.13;;;;;;;1.10;70.50;98536.22;5058981;28;45261;-82
2021/03/10 05:37:58;;;;;;;26.83;15.45;;;;;;;1.33;69.31;98527.94;5058672;28;45468;-81
2021/03/10 05:40:24;;;;;;;27.70;15.35;;;;;;;1.25;69.78;98531.88;5058829;28;45314;-81
2021/03/10 05:42:51;;;;;;;26.55;16.48;;;;;;;1.15;71.17;98531.56;5058691;28;45312;-81
2021/03/10 05:45:16;;;;;;;26.73;14.65;;;;;;;1.07;70.86;98536.41;5065145;28;45497;-81
2021/03/10 05:47:42;;;;;;;24.45;14.73;;;;;;;1.11;71.46;98555.41;5058619;28;45526;-81
2021/03/10 05:50:08;;;;;;;27.80;15.13;;;;;;;1.08;71.15;98543.31;5067354;28;45179;-81
2021/03/10 05:52:36;;;;;;;28.50;15.48;;;;;;;1.01;72.22;98549.84;5070225;27;45332;-82
2021/03/10 05:55:02;;;;;;;26.63;15.75;;;;;;;1.14;71.16;98544.75;5069675;27;45272;-81
2021/03/10 05:57:28;;;;;;;24.45;15.20;;;;;;;1.16;70.65;98550.75;5058564;28;46436;-81
2021/03/10 05:59:54;;;;;;;28.73;16.38;;;;;;;1.12;71.16;98539.59;5058653;28;45444;-81
2021/03/10 06:02:20;;;;;;;27.45;16.33;;;;;;;1.31;69.76;98547.22;5058082;28;45351;-82
2021/03/10 06:04:45;;;;;;;28.13;15.23;;;;;;;1.31;70.33;98549.00;5061432;28;45478;-81
2021/03/10 06:07:24;;;;;;;28.77;16.55;;;;;;;1.33;71.87;98552.41;5057188;28;45333;-81
2021/03/10 06:10:04;;;;;;;29.52;15.95;;;;;;;1.35;71.43;98550.53;5057611;28;45267;-81
2021/03/10 06:12:36;;;;;;;;;;;;;;;1.40;70.05;98556.34;5058429;28;45501;-81
2021/03/10 06:15:02;;;;;;;26.17;15.15;;;;;;;1.30;71.22;98549.94;5068470;28;45348;-81
2021/03/10 06:17:28;;;;;;;31.40;17.38;;;;;;;1.27;71.47;98550.97;5077112;28;45376;-82
2021/03/10 06:19:53;;;;;;;29.67;16.73;;;;;;;1.25;71.38;98546.72;5058248;27;45949;-81
2021/03/10 06:22:19;;;;;;;28.38;17.17;;;;;;;1.29;72.41;98556.97;5065431;28;45751;-82
2021/03/10 06:24:49;;;;;;;28.63;16.67;;;;;;;1.55;70.16;98559.81;5074271;27;45336;-81
2021/03/10 06:27:20;;;;;;;28.30;16.25;;;;;;;1.53;70.35;98560.84;5069326;28;45506;-81
2021/03/10 06:29:57;;;;;;;27.92;16.73;;;;;;;1.58;70.28;98561.44;5066722;28;48278;-80
2021/03/10 06:32:23;;;;;;;29.85;16.77;;;;;;;1.59;70.83;98563.09;5071132;28;45458;-78
2021/03/10 06:34:50;;;;;;;28.70;16.92;;;;;;;1.58;69.63;98571.91;5070092;28;45489;-79
2021/03/10 06:37:29;;;;;;;27.52;16.13;;;;;;;1.77;69.61;98570.81;5066750;28;45201;-78
2021/03/10 06:40:10;;;;;;;25.52;15.70;;;;;;;1.77;69.85;98582.16;5078094;27;47426;-78
2021/03/10 06:42:36;;;;;;;25.05;15.20;;;;;;;1.81;70.04;98591.53;5075234;27;45440;-78
2021/03/10 06:45:03;;;;;;;31.58;18.83;;;;;;;1.81;70.99;98588.91;5070147;27;45557;-79
2021/03/10 06:47:40;;;;;;;28.83;17.58;;;;;;;1.87;69.38;98587.66;5074429;27;45537;-80
2021/03/10 06:50:07;;;;;;;29.48;18.45;;;;;;;1.62;70.89;98593.53;5070382;28;46323;-79
2021/03/10 06:52:33;;;;;;;25.55;16.33;;;;;;;1.70;70.15;98597.41;5071518;28;46215;-79
2021/03/10 06:55:01;;;;;;;29.95;17.60;;;;;;;1.60;71.79;98599.72;5069589;28;45493;-79
2021/03/10 06:57:27;;;;;;;28.67;17.00;;;;;;;1.76;70.10;98590.91;5060195;27;45597;-80
2021/03/10 06:59:54;;;;;;;26.40;16.90;;;;;;;1.84;69.78;98587.84;5067356;28;47184;-81
2021/03/10 07:02:25;;;;;;;30.48;16.95;;;;;;;1.64;70.74;98589.91;5072728;28;45410;-82
2021/03/10 07:05:00;;;;;;;29.48;17.85;;;;;;;1.78;69.64;98598.72;5060876;28;45363;-83
2021/03/10 07:07:28;;;;;;;29.35;17.08;;;;;;;1.92;69.21;98606.59;5065785;28;45374;-83
2021/03/10 07:09:54;;;;;;;28.58;17.75;;;;;;;1.68;70.24;98617.63;5068964;28;45478;-83
2021/03/10 07:12:22;;;;;;;29.13;17.30;;;;;;;1.69;70.90;98614.06;5061355;27;45340;-80
2021/03/10 07:14:48;;;;;;;30.15;18.05;;;;;;;1.65;70.38;98616.94;5070435;28;45396;-80
2021/03/10 07:17:16;;;;;;;29.05;16.52;;;;;;;1.71;71.12;98617.44;5076677;28;45339;-82
2021/03/10 07:19:44;;;;;;;28.02;16.60;;;;;;;1.69;71.38;98626.31;5075654;27;46091;-81
2021/03/10 07:22:09;;;;;;;26.85;15.23;;;;;;;1.88;70.46;98628.69;5075955;27;45455;-80
2021/03/10 07:24:57;;;;;;;27.67;16.95;;;;;;;1.77;71.35;98618.88;5072193;27;45399;-79
2021/03/10 07:27:24;;;;;;;32.60;19.02;;;;;;;1.69;71.62;98627.19;5066182;27;45310;-80
2021/03/10 07:29:57;;;;;;;33.25;19.10;;;;;;;1.96;70.76;98623.84;5069139;28;45347;-79
2021/03/10 07:32:24;;;;;;;31.33;18.77;;;;;;;1.88;71.03;98621.69;5060279;28;45301;-83
2021/03/10 07:35:10;;;;;;;29.60;18.38;;;;;;;2.12;68.99;98629.00;5057876;28;45230;-81
2021/03/10 07:37:37;;;;;;;30.00;17.48;;;;;;;2.16;69.87;98632.28;5059836;28;45243;-79
2021/03/10 07:40:16;;;;;;;30.48;17.17;;;;;;;2.22;68.90;98629.31;5068487;28;45995;-79
2021/03/10 07:42:58;;;;;;;32.15;18.25;;;;;;;2.39;67.97;98637.91;5060439;28;45373;-77
2021/03/10 07:45:40;;;;;;;30.48;18.45;;;;;;;2.58;67.23;98635.84;5061309;28;45577;-77
2021/03/10 07:48:05;;;;;;;32.72;17.92;;;;;;;2.57;67.27;98638.53;5060264;28;45479;-76
2021/03/10 07:50:41;;;;;;;33.65;18.77;;;;;;;2.37;66.86;98627.50;5059997;28;45513;-77
2021/03/10 07:53:07;;;;;;;32.50;19.08;;;;;;;2.21;69.72;98632.88;5071495;28;45538;-77
2021/03/10 07:55:46;;;;;;;30.70;18.92;;;;;;;2.29;69.42;98635.88;5062382;27;45391;-78
2021/03/10 07:58:12;;;;;;;31.00;19.42;;;;;;;2.41;67.98;98631.63;5060039;28;45596;-78
2021/03/10 08:00:39;;;;;;;34.10;20.52;;;;;;;2.26;70.11;98636.06;5072460;28;47130;-76
2021/03/10 08:03:05;;;;;;;35.58;20.42;;;;;;;2.11;69.82;98636.97;5073803;27;45618;-77
2021/03/10 08:05:30;;;;;;;35.13;19.85;;;;;;;2.22;68.50;98647.69;5075752;28;45589;-76
2021/03/10 08:08:06;;;;;;;31.08;18.45;;;;;;;2.42;69.64;98640.34;5062288;28;45597;-79
2021/03/10 08:10:32;;;;;;;32.78;19.30;;;;;;;2.39;70.05;98638.75;5067944;28;45442;-78
2021/03/10 08:12:57;;;;;;;31.30;19.15;;;;;;;2.41;69.24;98644.75;5073497;27;45866;-78
2021/03/10 08:15:23;;;;;;;30.98;20.20;;;;;;;2.48;68.22;98646.06;5072934;28;45332;-78
2021/03/10 08:17:49;;;;;;;33.80;18.70;;;;;;;2.64;67.52;98645.09;5080004;27;45581;-78
2021/03/10 08:20:15;;;;;;;30.58;17.60;;;;;;;2.71;66.29;98640.31;5063906;27;45396;-78
2021/03/10 08:22:41;;;;;;;30.42;17.85;;;;;;;2.62;66.77;98649.59;5059511;28;45255;-78
2021/03/10 08:25:12;;;;;;;32.03;18.88;;;;;;;2.82;65.99;98639.66;5059154;28;45383;-78
2021/03/10 08:27:40;;;;;;;31.45;18.88;;;;;;;2.91;65.97;98650.41;5065966;28;45524;-78
2021/03/10 08:30:09;;;;;;;34.42;18.98;;;;;;;2.94;65.76;98653.78;5059161;28;46415;-78
2021/03/10 08:32:35;;;;;;;50.90;24.45;;;;;;;2.77;66.37;98648.66;5059321;28;45355;-78
2021/03/10 08:35:11;;;;;;;43.47;21.65;;;;;;;3.02;66.64;98664.63;5059299;28;45610;-78
2021/03/10 08:37:38;;;;;;;39.45;20.23;;;;;;;3.02;68.48;98664.63;5059307;28;45569;-78
2021/03/10 08:40:06;;;;;;;35.63;19.05;;;;;;;3.18;66.85;98664.50;5070867;28;48359;-78
2021/03/10 08:42:32;;;;;;;33.10;19.60;;;;;;;3.20;66.83;98666.09;5059371;28;45307;-78
2021/03/10 08:44:58;;;;;;;38.17;20.42;;;;;;;3.20;65.17;98666.09;5072564;28;45402;-78
2021/03/10 08:47:26;;;;;;;33.55;18.92;;;;;;;3.28;64.63;98654.25;5073534;28;45194;-79
2021/03/10 08:49:57;;;;;;;35.30;19.40;;;;;;;3.43;63.63;98662.91;5071554;28;48043;-78
2021/03/10 08:52:24;;;;;;;32.83;17.50;;;;;;;3.45;63.65;98664.50;5072391;28;45284;-78
2021/03/10 08:54:52;;;;;;;31.63;18.98;;;;;;;3.63;63.46;98662.44;5074383;27;45333;-78
2021/03/10 08:57:20;;;;;;;34.90;19.75;;;;;;;3.71;62.73;98675.06;5058944;28;45570;-78
2021/03/10 08:59:46;;;;;;;34.00;19.92;;;;;;;3.82;62.56;98681.41;5058943;28;45482;-78
2021/03/10 09:02:13;;;;;;;42.58;21.90;;;;;;;4.00;62.31;98684.59;5069280;28;45423;-78
2021/03/10 09:04:48;;;;;;;36.92;19.92;;;;;;;3.97;62.77;98682.19;5069374;28;45285;-78
2021/03/10 09:07:16;;;;;;;28.27;17.35;;;;;;;4.08;61.86;98688.41;5058669;28;45600;-78
2021/03/10 09:09:43;;;;;;;27.52;16.42;;;;;;;4.16;61.70;98689.69;5058282;28;45368;-78
2021/03/10 09:12:08;;;;;;;26.77;16.17;;;;;;;4.30;62.20;98686.09;5062388;28;45362;-78
2021/03/10 09:14:36;;;;;;;24.83;15.80;;;;;;;4.68;61.72;98683.44;5074254;28;45422;-78
2021/03/10 09:17:02;;;;;;;28.10;17.20;;;;;;;5.18;60.04;98687.00;5075230;28;45194;-78
2021/03/10 09:19:42;;;;;;;28.00;16.70;;;;;;;5.77;57.91;98698.56;5074105;28;48277;-78
2021/03/10 09:22:19;;;;;;;29.88;17.40;;;;;;;6.78;58.14;98696.25;5065376;28;45396;-78
2021/03/10 09:24:59;;;;;;;29.25;16.75;;;;;;;8.07;53.23;98702.59;5063070;28;45316;-79
2021/03/10 10:34:36;;;;;;;26.73;16.88;;;;;;;9.67;43.11;98637.53;5087894;27;897852;-78
2021/03/10 10:37:01;;;;;;;25.75;16.27;;;;;;;9.65;46.02;98640.31;5093670;27;45291;-76
2021/03/10 10:42:49;;;;;;;24.38;16.60;;;;;;;9.90;46.28;98641.53;5108699;27;45677;-76
2021/03/10 10:45:16;;;;;;;23.48;16.48;;;;;;;9.75;45.25;98638.50;5081513;27;45643;-77
2021/03/10 10:48:28;;;;;;;25.23;16.30;;;;;;;9.43;45.13;98638.78;5077687;27;45453;-77
2021/03/10 10:50:54;;;;;;;27.63;16.98;;;;;;;10.27;45.90;98625.81;5086009;27;45670;-78
2021/03/10 10:53:53;;;;;;;26.10;18.13;;;;;;;10.43;45.46;98618.09;5095648;27;45462;-78
2021/03/10 10:56:18;;;;;;;26.67;16.23;;;;;;;10.41;43.46;98625.38;5088568;27;45422;-78
2021/03/10 10:58:43;;;;;;;22.73;16.75;;;;;;;10.31;44.81;98611.25;5093276;27;45433;-77
2021/03/10 11:01:09;;;;;;;24.67;16.33;;;;;;;10.11;43.09;98619.25;5093446;27;45531;-78
2021/03/10 11:03:34;;;;;;;25.80;16.10;;;;;;;10.14;44.87;98616.31;5096032;27;46107;-78
2021/03/10 11:06:01;;;;;;;24.08;15.70;;;;;;;10.59;44.15;98619.28;5080360;27;45555;-76
2021/03/10 11:08:27;;;;;;;20.65;15.85;;;;;;;10.17;44.44;98610.75;5077759;27;46952;-75
2021/03/10 11:10:52;;;;;;;26.17;16.67;;;;;;;10.36;45.87;98609.00;5078833;27;45480;-76
2021/03/10 11:13:17;;;;;;;23.55;16.02;;;;;;;10.51;45.41;98601.38;5099148;27;45362;-74
2021/03/10 11:15:43;;;;;;;25.50;16.30;;;;;;;10.68;45.91;98593.63;5089371;27;45284;-75
2021/03/10 11:18:08;;;;;;;24.25;16.23;;;;;;;10.70;42.42;98599.63;5093138;27;45335;-74
2021/03/10 11:20:34;;;;;;;25.65;16.75;;;;;;;10.70;45.68;98589.81;5071424;27;45299;-75
2021/03/10 11:22:59;;;;;;;24.83;16.83;;;;;;;10.41;42.16;98585.50;5085786;27;45464;-75
2021/03/10 11:25:24;;;;;;;25.25;16.52;;;;;;;10.30;43.11;98581.16;5088699;27;45676;-75
2021/03/10 11:27:50;;;;;;;22.25;15.68;;;;;;;10.33;43.71;98580.88;5092725;27;45237;-74
2021/03/10 11:30:16;;;;;;;28.38;16.60;;;;;;;10.48;45.31;98578.59;5089968;27;45208;-74
2021/03/10 11:32:42;;;;;;;23.98;16.10;;;;;;;10.65;45.91;98581.44;5085655;27;45414;-75
2021/03/10 11:35:09;;;;;;;24.48;16.15;;;;;;;10.71;42.43;98574.72;5088067;27;45619;-74
2021/03/10 11:37:36;;;;;;;25.63;16.70;;;;;;;10.93;44.38;98584.06;5077667;27;45444;-75
2021/03/10 11:40:03;;;;;;;21.42;15.32;;;;;;;11.10;43.35;98577.09;5095911;27;45289;-74
2021/03/10 11:42:29;;;;;;;22.33;15.38;;;;;;;11.19;44.70;98572.72;5095282;27;46124;-73
2021/03/10 11:44:54;;;;;;;23.05;15.80;;;;;;;11.09;42.86;98573.63;5097092;27;45302;-74
2021/03/10 11:47:20;;;;;;;32.85;16.42;;;;;;;10.71;41.47;98577.38;5096176;27;45315;-75
2021/03/10 11:49:45;;;;;;;22.00;15.45;;;;;;;10.66;41.79;98564.50;5095682;27;45278;-75
2021/03/10 11:52:11;;;;;;;23.10;15.65;;;;;;;10.53;41.99;98564.03;5076297;27;47058;-75
2021/03/10 11:54:36;;;;;;;24.73;15.98;;;;;;;10.66;42.32;98561.84;5094856;27;45294;-74
2021/03/10 11:57:02;;;;;;;22.15;15.48;;;;;;;10.78;41.50;98559.81;5075172;27;45515;-75
2021/03/10 11:59:27;;;;;;;24.80;15.85;;;;;;;10.93;44.55;98546.81;5096226;27;45262;-75
2021/03/10 12:01:53;;;;;;;20.52;14.57;;;;;;;11.09;43.39;98548.81;5096710;27;46151;-74
2021/03/10 12:04:18;;;;;;;22.15;15.52;;;;;;;11.18;44.23;98544.41;5077655;27;45672;-74
2021/03/10 12:06:44;;;;;;;23.25;17.58;;;;;;;11.15;43.46;98536.75;5098800;27;45453;-75
2021/03/10 12:09:09;;;;;;;25.65;17.05;;;;;;;11.21;43.89;98536.94;5095662;27;45305;-74
2021/03/10 12:11:35;;;;;;;21.60;14.98;;;;;;;11.03;41.90;98533.47;5092910;27;45440;-75
2021/03/10 12:14:00;;;;;;;21.13;14.57;;;;;;;11.13;41.37;98530.72;5077227;27;45410;-75
2021/03/10 12:16:26;;;;;;;22.48;15.05;;;;;;;11.38;43.59;98519.28;5077321;27;45458;-75
2021/03/10 12:18:51;;;;;;;23.33;15.20;;;;;;;11.12;39.67;98521.06;5098412;27;45486;-75
2021/03/10 12:21:17;;;;;;;21.55;14.88;;;;;;;11.27;41.51;98516.03;5077261;27;46843;-75
2021/03/10 12:23:43;;;;;;;22.85;14.27;;;;;;;11.44;40.09;98523.16;5077342;27;45383;-76
2021/03/10 12:26:08;;;;;;;24.38;16.02;;;;;;;10.89;38.21;98517.03;5092713;27;45377;-75
2021/03/10 12:28:34;;;;;;;21.80;14.95;;;;;;;10.74;39.20;98513.22;5096044;27;45456;-75
2021/03/10 12:30:59;;;;;;;21.27;14.10;;;;;;;11.04;39.57;98509.34;5092918;27;45360;-75
2021/03/10 12:33:25;;;;;;;21.17;14.45;;;;;;;11.16;39.79;98501.97;5095770;27;45280;-75
2021/03/10 12:35:51;;;;;;;24.20;14.80;;;;;;;11.21;40.77;98501.53;5068523;27;45480;-75
2021/03/10 12:38:16;;;;;;;21.45;14.40;;;;;;;10.88;38.10;98495.88;5098344;27;45528;-75